Time;durP1;ratioP1;P1;durP2;ratioP2;P2;SDS_P1;SDS_P2;PMS_P1;PMS_P2;Temp;Humidity;BMP_temperature;BMP_pressure;BME280_temperature;BME280_humidity;BME280_pressure;Samples;Min_cycle;Max_cycle;Signal;HPM_P1;HPM_P2
2023/04/01 00:00:59;;;;;;;33.10;17.13;;;;;;;-147.16;90.91;75153.31;5020647;23;20274;-66
2023/04/01 00:03:26;;;;;;;32.53;17.20;;;;;;;-147.16;90.69;75155.34;5025832;23;20212;-68
2023/04/01 00:05:55;;;;;;;34.97;18.20;;;;;;;-147.16;91.28;75165.44;5023694;23;21638;-67
2023/04/01 00:08:21;;;;;;;34.23;18.13;;;;;;;-147.16;91.04;75157.34;5041706;23;20205;-66
2023/04/01 00:10:48;;;;;;;37.63;18.57;;;;;;;-147.16;91.13;75157.34;5060376;23;20217;-67
2023/04/01 00:13:15;;;;;;;38.87;18.30;;;;;;;-147.16;90.86;75147.25;5045995;23;20206;-67
2023/04/01 00:15:42;;;;;;;34.07;18.47;;;;;;;-147.16;90.86;75145.22;5017542;23;21136;-68
2023/04/01 00:18:09;;;;;;;36.67;18.97;;;;;;;-147.16;91.27;75149.25;5021803;23;20243;-67
2023/04/01 00:20:36;;;;;;;43.27;19.77;;;;;;;-147.16;91.01;75157.34;5029209;23;20225;-67
2023/04/01 00:23:04;;;;;;;40.97;20.23;;;;;;;-147.16;91.50;75173.53;5057392;23;20255;-67
2023/04/01 00:25:30;;;;;;;44.23;21.17;;;;;;;-147.16;91.72;75177.59;5047550;23;20279;-65
2023/04/01 00:27:58;;;;;;;43.23;20.87;;;;;;;-147.16;92.08;75177.59;5051928;23;20810;-65
2023/04/01 00:30:24;;;;;;;37.50;20.50;;;;;;;-147.16;92.49;75183.66;5056919;23;21693;-70
2023/04/01 00:32:52;;;;;;;53.50;22.10;;;;;;;-147.16;92.52;75189.75;5038499;23;20771;-65
2023/04/01 00:35:19;;;;;;;41.37;21.60;;;;;;;-147.16;92.90;75189.75;5053978;23;21129;-66
2023/04/01 00:37:47;;;;;;;44.43;22.30;;;;;;;-147.16;92.94;75185.69;5052784;23;20475;-65
2023/04/01 00:40:29;;;;;;;44.93;22.00;;;;;;;-147.16;92.88;75179.63;5047631;23;20201;-67
2023/04/01 00:42:56;;;;;;;43.27;21.70;;;;;;;-147.16;93.01;75189.75;5068319;23;20213;-66
2023/04/01 00:45:25;;;;;;;40.80;22.03;;;;;;;-147.16;92.94;75191.75;5049658;23;20506;-67
2023/04/01 00:47:53;;;;;;;40.07;22.50;;;;;;;-147.16;92.98;75199.84;5050243;23;20286;-66
2023/04/01 00:50:21;;;;;;;44.80;22.50;;;;;;;-147.16;93.36;75195.81;5042499;23;20536;-69
2023/04/01 00:52:48;;;;;;;39.63;22.33;;;;;;;-147.16;93.15;75197.84;5057007;23;20199;-65
2023/04/01 00:55:15;;;;;;;45.37;22.43;;;;;;;-147.16;93.41;75205.94;5043679;23;20209;-67
2023/04/01 00:57:42;;;;;;;49.73;24.60;;;;;;;-147.16;93.46;75214.03;5043486;23;20278;-65
2023/04/01 01:00:10;;;;;;;44.23;23.07;;;;;;;-147.16;93.68;75193.78;5044341;23;20205;-67
2023/04/01 01:02:38;;;;;;;49.13;24.83;;;;;;;-147.16;93.82;75209.97;5030472;23;20213;-68
2023/04/01 01:05:05;;;;;;;56.00;25.40;;;;;;;-147.16;94.00;75209.97;5063452;23;20506;-65
2023/04/01 01:07:54;;;;;;;46.47;23.77;;;;;;;-147.16;93.89;75185.69;5057950;23;20336;-66
2023/04/01 01:10:26;;;;;;;49.47;23.63;;;;;;;-147.16;93.94;75181.63;5009089;23;22380;-67
2023/04/01 01:12:57;;;;;;;48.63;23.43;;;;;;;-147.16;93.76;75185.69;5033479;23;22931;-68
2023/04/01 01:15:27;;;;;;;44.13;22.83;;;;;;;-147.16;93.50;75171.53;5065750;23;20374;-65
2023/04/01 01:17:58;;;;;;;45.00;23.47;;;;;;;-147.16;93.74;75173.53;5041129;23;20231;-65
2023/04/01 01:20:40;;;;;;;46.13;23.30;;;;;;;-147.16;93.47;75185.69;5049765;23;21006;-67
2023/04/01 01:23:30;;;;;;;45.87;22.67;;;;;;;-147.16;93.45;75181.63;5024748;23;20305;-67
2023/04/01 01:26:16;;;;;;;49.10;23.23;;;;;;;-147.16;93.43;75173.53;5055228;23;20270;-66
2023/04/01 01:29:16;;;;;;;45.90;22.23;;;;;;;-147.16;93.15;75167.47;5022283;23;20254;-68
2023/04/01 01:31:53;;;;;;;41.93;22.53;;;;;;;-147.16;92.90;75177.59;5066150;23;23246;-66
2023/04/01 01:34:28;;;;;;;44.57;22.17;;;;;;;-147.16;93.08;75185.69;5034468;23;20205;-66
2023/04/01 01:36:58;;;;;;;46.87;22.87;;;;;;;-147.16;93.08;75191.75;5035438;23;23309;-68
2023/04/01 01:39:27;;;;;;;38.13;21.23;;;;;;;-147.16;93.36;75177.59;5052567;23;21299;-65
2023/04/01 01:41:55;;;;;;;49.27;24.37;;;;;;;-147.16;93.39;75193.78;5049901;23;20272;-65
2023/04/01 01:44:23;;;;;;;47.17;22.50;;;;;;;-147.16;93.38;75189.75;5033983;23;20713;-68
2023/04/01 01:46:50;;;;;;;49.83;23.30;;;;;;;-147.16;93.63;75177.59;5026945;23;21135;-67
2023/04/01 01:49:17;;;;;;;49.00;23.47;;;;;;;-147.16;93.28;75193.78;5056016;23;20344;-67
2023/04/01 01:51:44;;;;;;;49.13;23.97;;;;;;;-147.16;93.32;75197.84;5034111;23;22487;-66
2023/04/01 01:54:15;;;;;;;47.37;24.30;;;;;;;-147.16;93.51;75201.88;5041837;23;20212;-66
2023/04/01 01:56:45;;;;;;;56.80;24.37;;;;;;;-147.16;93.69;75201.88;5053019;23;20208;-65
2023/04/01 01:59:13;;;;;;;49.43;24.73;;;;;;;-147.16;93.86;75199.84;5019124;23;21782;-64
2023/04/01 02:01:42;;;;;;;44.27;24.47;;;;;;;-147.16;93.95;75201.88;5044280;23;21257;-66
2023/04/01 02:04:10;;;;;;;44.00;23.17;;;;;;;-147.16;93.75;75191.75;5048406;23;20211;-67
2023/04/01 02:06:40;;;;;;;50.07;24.10;;;;;;;-147.16;93.83;75177.59;5028592;23;20265;-64
2023/04/01 02:09:10;;;;;;;55.47;24.47;;;;;;;-147.16;93.92;75183.66;5016158;23;20217;-67
2023/04/01 02:11:53;;;;;;;53.23;25.03;;;;;;;-147.16;93.80;75193.78;5040609;23;20262;-66
2023/04/01 02:14:29;;;;;;;54.43;25.07;;;;;;;-147.16;93.77;75185.69;5028001;23;20496;-66
2023/04/01 02:16:59;;;;;;;50.73;24.90;;;;;;;-147.16;93.68;75165.44;5047489;23;22060;-67
2023/04/01 02:19:35;;;;;;;45.57;24.37;;;;;;;-147.16;93.38;75171.53;5036546;23;20344;-68
2023/04/01 02:22:03;;;;;;;44.73;24.50;;;;;;;-147.16;93.31;75165.44;5044766;23;22596;-65
2023/04/01 02:24:31;;;;;;;49.13;25.80;;;;;;;-147.16;93.39;75165.44;5023361;23;21053;-67
2023/04/01 02:26:58;;;;;;;44.67;24.90;;;;;;;-147.16;93.14;75153.31;5024023;23;20391;-65
2023/04/01 02:29:25;;;;;;;46.50;24.63;;;;;;;-147.16;93.33;75151.28;5052159;23;20650;-65
2023/04/01 02:31:53;;;;;;;48.57;23.07;;;;;;;-147.16;93.21;75157.34;5047143;23;20275;-65
2023/04/01 02:34:21;;;;;;;50.73;25.23;;;;;;;-147.16;92.75;75141.16;5020981;23;20216;-67
2023/04/01 02:36:48;;;;;;;45.10;22.97;;;;;;;-147.16;92.91;75153.31;5035917;23;20636;-68
2023/04/01 02:39:15;;;;;;;45.83;23.83;;;;;;;-147.16;92.90;75151.28;5038109;23;20367;-66
2023/04/01 02:41:43;;;;;;;45.30;23.97;;;;;;;-147.16;92.79;75157.34;5038260;23;20411;-67
2023/04/01 02:44:11;;;;;;;49.40;24.80;;;;;;;-147.16;92.76;75169.50;5045663;23;23353;-66
2023/04/01 02:46:39;;;;;;;48.27;24.43;;;;;;;-147.16;92.68;75173.53;5070280;23;20212;-64
2023/04/01 02:49:06;;;;;;;55.83;26.07;;;;;;;-147.16;93.06;75181.63;5046541;23;20336;-67
2023/04/01 02:51:33;;;;;;;50.20;25.40;;;;;;;-147.16;93.16;75191.75;5058738;23;20354;-66
2023/04/01 02:54:00;;;;;;;46.27;24.67;;;;;;;-147.16;93.28;75187.72;5030117;23;20705;-66
2023/04/01 02:56:26;;;;;;;50.60;24.77;;;;;;;-147.16;93.38;75201.88;5051945;23;20969;-66
2023/04/01 02:58:53;;;;;;;48.60;26.17;;;;;;;-147.16;93.46;75205.94;5052594;23;20211;-64
2023/04/01 03:01:21;;;;;;;53.17;26.63;;;;;;;-147.16;93.78;75220.09;5051956;23;21055;-65
2023/04/01 03:03:47;;;;;;;52.80;26.77;;;;;;;-147.16;94.02;75224.13;5051465;23;20658;-66
2023/04/01 03:06:15;;;;;;;59.03;27.87;;;;;;;-147.16;94.12;75224.13;5046308;23;20208;-68
2023/04/01 03:08:42;;;;;;;59.23;28.90;;;;;;;-147.16;94.40;75218.06;5045520;23;20257;-66
2023/04/01 03:11:10;;;;;;;57.97;29.37;;;;;;;-147.16;94.30;75228.19;5060079;23;20631;-67
2023/04/01 03:13:36;;;;;;;56.87;30.37;;;;;;;-147.16;94.33;75234.25;5054455;23;20397;-66
2023/04/01 03:16:03;;;;;;;53.20;29.07;;;;;;;-147.16;94.57;75240.34;5061321;23;20204;-65
2023/04/01 03:18:30;;;;;;;56.67;29.67;;;;;;;-147.16;94.56;75242.34;5070023;23;20306;-68
2023/04/01 03:20:56;;;;;;;55.03;29.33;;;;;;;-147.16;94.85;75240.34;5046453;23;20221;-65
2023/04/01 03:23:24;;;;;;;64.17;30.27;;;;;;;-147.16;95.04;75248.44;5079958;23;21499;-66
2023/04/01 03:25:50;;;;;;;54.60;28.13;;;;;;;-147.16;95.13;75242.34;5048795;23;20277;-67
2023/04/01 03:28:17;;;;;;;59.47;28.67;;;;;;;-147.16;95.20;75242.34;5040099;23;20347;-66
2023/04/01 03:30:44;;;;;;;57.17;29.27;;;;;;;-147.16;94.97;75254.50;5024992;23;20573;-68
2023/04/01 03:33:10;;;;;;;54.70;27.63;;;;;;;-147.16;94.82;75260.56;5043057;23;20210;-66
2023/04/01 03:35:37;;;;;;;58.83;28.43;;;;;;;-147.16;94.95;75258.53;5045025;23;21495;-66
2023/04/01 03:38:03;;;;;;;52.93;27.87;;;;;;;-147.16;94.75;75250.44;5042884;23;22044;-64
2023/04/01 03:40:30;;;;;;;66.33;29.27;;;;;;;-147.16;94.75;75266.63;5045370;23;20208;-66
2023/04/01 03:42:57;;;;;;;52.53;27.37;;;;;;;-147.16;95.03;75272.72;5043853;23;20376;-66
2023/04/01 03:45:23;;;;;;;52.87;27.37;;;;;;;-147.16;95.15;75266.63;5049218;23;20204;-67
2023/04/01 03:47:50;;;;;;;60.37;28.33;;;;;;;-147.16;95.11;75270.69;5028414;23;20205;-67
2023/04/01 03:50:16;;;;;;;49.70;27.03;;;;;;;-147.16;94.98;75266.63;5031936;23;20292;-65
2023/04/01 03:52:43;;;;;;;54.87;26.33;;;;;;;-147.16;94.96;75274.72;5047395;23;20289;-68
2023/04/01 03:55:09;;;;;;;52.83;27.13;;;;;;;-147.16;94.91;75272.72;5049803;23;20267;-66
2023/04/01 03:57:36;;;;;;;53.20;26.53;;;;;;;-147.16;94.92;75274.72;5048764;23;20276;-68
2023/04/01 04:00:03;;;;;;;54.77;26.73;;;;;;;-147.16;95.02;75274.72;5044042;23;21412;-67
2023/04/01 04:02:30;;;;;;;50.47;26.63;;;;;;;-147.16;94.95;75282.84;5051285;23;20207;-67
2023/04/01 04:04:56;;;;;;;51.73;26.93;;;;;;;-147.16;95.05;75282.84;5062181;23;20210;-67
2023/04/01 04:07:23;;;;;;;50.83;26.13;;;;;;;-147.16;94.88;75288.91;5055032;23;20211;-69
2023/04/01 04:09:49;;;;;;;49.03;26.20;;;;;;;-147.16;94.99;75286.88;5041649;23;22861;-69
2023/04/01 04:12:16;;;;;;;63.70;27.60;;;;;;;-147.16;95.13;75286.88;5052102;23;20208;-67
2023/04/01 04:14:42;;;;;;;52.27;26.87;;;;;;;-147.16;94.98;75274.72;5062169;23;20219;-67
2023/04/01 04:17:15;;;;;;;52.10;25.87;;;;;;;-147.16;95.05;75290.94;5060353;23;20252;-65
2023/04/01 04:19:42;;;;;;;50.23;25.37;;;;;;;-147.16;94.86;75286.88;5049941;23;20210;-65
2023/04/01 04:22:09;;;;;;;49.43;24.47;;;;;;;-147.16;94.66;75297.00;5048473;23;21338;-68
2023/04/01 04:24:36;;;;;;;49.07;24.57;;;;;;;-147.16;94.58;75313.19;5044551;23;22282;-66
2023/04/01 04:27:03;;;;;;;52.20;24.70;;;;;;;-147.16;94.66;75315.22;5057780;23;20217;-66
2023/04/01 04:29:30;;;;;;;46.70;23.73;;;;;;;-147.16;94.61;75309.13;5047602;23;22012;-65
2023/04/01 04:31:56;;;;;;;40.83;21.83;;;;;;;-147.16;94.54;75311.16;5084036;23;21920;-68
2023/04/01 04:34:23;;;;;;;42.53;22.53;;;;;;;-147.16;94.45;75313.19;5070232;23;20214;-67
2023/04/01 04:36:50;;;;;;;40.20;21.80;;;;;;;-147.16;94.39;75323.31;5055788;23;20598;-64
2023/04/01 04:39:16;;;;;;;38.67;19.33;;;;;;;-147.16;94.36;75321.28;5063130;23;20669;-67
2023/04/01 04:41:43;;;;;;;39.43;21.03;;;;;;;-147.16;94.20;75329.38;5028346;23;20219;-67
2023/04/01 04:44:09;;;;;;;41.50;20.87;;;;;;;-147.16;93.95;75323.31;5068012;23;20629;-68
2023/04/01 04:46:37;;;;;;;37.60;19.47;;;;;;;-147.16;94.00;75313.19;5031891;23;20769;-66
2023/04/01 04:49:04;;;;;;;36.67;19.13;;;;;;;-147.16;93.55;75321.28;5053916;23;20201;-65
2023/04/01 04:51:33;;;;;;;35.20;18.70;;;;;;;-147.16;93.57;75319.25;5062027;23;20206;-67
2023/04/01 04:54:00;;;;;;;35.37;19.23;;;;;;;-147.16;93.40;75319.25;5031106;23;20207;-65
2023/04/01 04:56:27;;;;;;;33.63;18.43;;;;;;;-147.16;93.10;75321.28;5087972;23;20209;-64
2023/04/01 04:58:53;;;;;;;33.77;18.00;;;;;;;-147.16;93.28;75329.38;5065206;23;20240;-64
2023/04/01 05:01:20;;;;;;;30.40;17.37;;;;;;;-147.16;93.14;75331.41;5075840;23;21953;-64
2023/04/01 05:03:47;;;;;;;32.00;17.47;;;;;;;-147.16;93.19;75327.34;5052081;23;20214;-67
2023/04/01 05:06:15;;;;;;;32.83;16.53;;;;;;;-147.16;92.96;75327.34;5059123;23;20216;-70
2023/04/01 05:08:43;;;;;;;31.23;15.77;;;;;;;-147.16;93.13;75327.34;5073160;23;20207;-65
2023/04/01 05:11:12;;;;;;;27.90;15.03;;;;;;;-147.16;92.99;75327.34;5053654;23;22182;-68
2023/04/01 05:13:40;;;;;;;30.23;15.63;;;;;;;-147.16;93.11;75341.53;5070298;23;20663;-67
2023/04/01 05:16:14;;;;;;;29.23;14.93;;;;;;;-147.16;93.41;75339.50;5090711;23;20203;-68
2023/04/01 05:18:42;;;;;;;28.13;15.00;;;;;;;-147.16;93.39;75339.50;5087537;23;20247;-65
2023/04/01 05:21:11;;;;;;;27.37;14.77;;;;;;;-147.16;93.25;75337.47;5078946;23;20219;-68
2023/04/01 05:23:37;;;;;;;27.03;14.80;;;;;;;-147.16;93.41;75347.59;5093010;23;20345;-64
2023/04/01 05:26:10;;;;;;;24.20;13.50;;;;;;;-147.16;93.27;75329.38;5092650;23;20325;-69
2023/04/01 05:28:36;;;;;;;24.40;13.47;;;;;;;-147.16;92.87;75331.41;5053237;23;20252;-65
2023/04/01 05:31:04;;;;;;;23.90;13.77;;;;;;;-147.16;92.84;75335.44;5060986;23;20738;-67
2023/04/01 05:33:31;;;;;;;24.20;14.60;;;;;;;-147.16;92.76;75335.44;5091961;23;21344;-68
2023/04/01 05:36:07;;;;;;;22.07;13.53;;;;;;;-147.16;92.66;75327.34;5066781;23;20206;-66
2023/04/01 05:38:34;;;;;;;22.33;12.53;;;;;;;-147.16;92.46;75321.28;5048536;23;22139;-68
2023/04/01 05:41:05;;;;;;;22.37;12.83;;;;;;;-147.16;91.97;75309.13;5043430;23;20204;-65
2023/04/01 05:43:35;;;;;;;20.70;12.87;;;;;;;-147.16;91.72;75311.16;5055367;23;20709;-67
2023/04/01 05:46:03;;;;;;;25.33;12.83;;;;;;;-147.16;91.73;75294.97;5057370;23;21496;-68
2023/04/01 05:48:29;;;;;;;19.33;12.40;;;;;;;-147.16;91.31;75282.84;5050653;23;21261;-65
2023/04/01 05:50:56;;;;;;;22.20;11.90;;;;;;;-147.16;90.70;75274.72;5045869;23;20212;-67
2023/04/01 05:53:23;;;;;;;22.30;11.83;;;;;;;-147.16;90.44;75268.66;5047748;23;20666;-65
2023/04/01 05:55:49;;;;;;;21.67;11.33;;;;;;;-147.16;90.17;75270.69;5060832;23;20339;-66
2023/04/01 05:58:16;;;;;;;20.33;11.87;;;;;;;-147.16;90.11;75262.59;5066467;23;22081;-67
2023/04/01 06:00:43;;;;;;;21.13;12.47;;;;;;;-147.16;89.78;75258.53;5039988;23;20673;-67
2023/04/01 06:03:10;;;;;;;19.17;11.57;;;;;;;-147.16;88.99;75250.44;5044857;23;20209;-66
2023/04/01 06:05:43;;;;;;;18.43;10.57;;;;;;;-147.16;88.88;75240.34;5059031;23;20393;-65
2023/04/01 06:08:12;;;;;;;19.70;11.13;;;;;;;-147.16;88.22;75236.28;5056671;23;20205;-66
2023/04/01 06:10:47;;;;;;;18.90;10.80;;;;;;;-147.16;88.14;75230.22;5042115;23;22243;-68
2023/04/01 06:13:30;;;;;;;18.50;11.13;;;;;;;-147.16;87.88;75222.13;5047781;23;20645;-66
2023/04/01 06:16:08;;;;;;;18.73;9.90;;;;;;;-147.16;87.55;75228.19;5026583;23;20283;-62
2023/04/01 06:18:48;;;;;;;15.40;8.57;;;;;;;-147.16;87.48;75242.34;5069362;23;20276;-65
2023/04/01 06:21:30;;;;;;;13.50;7.90;;;;;;;-147.16;87.14;75240.34;5081794;23;22921;-64
2023/04/01 06:24:42;;;;;;;13.30;7.33;;;;;;;-147.16;86.58;75222.13;5043370;23;20349;-67
2023/04/01 06:27:58;;;;;;;11.70;7.60;;;;;;;-147.16;86.28;75224.13;4982354;23;20293;-64
2023/04/01 06:30:38;;;;;;;10.57;6.63;;;;;;;-147.16;86.38;75260.56;4981799;23;20330;-67
2023/04/01 06:33:43;;;;;;;15.63;7.40;;;;;;;-147.16;87.13;75266.63;5044119;23;21171;-67
2023/04/01 06:36:34;;;;;;;12.13;7.80;;;;;;;-147.16;88.18;75274.72;5058943;23;21200;-65
2023/04/01 06:39:25;;;;;;;12.33;7.40;;;;;;;-147.16;87.88;75270.69;5062436;23;20211;-68
2023/04/01 06:42:13;;;;;;;17.90;8.20;;;;;;;-147.16;88.12;75254.50;5074880;23;20204;-64
2023/04/01 06:44:55;;;;;;;16.13;9.33;;;;;;;-147.16;87.98;75238.31;5078326;23;21129;-67
2023/04/01 06:47:59;;;;;;;18.47;11.10;;;;;;;-147.16;87.70;75212.00;5048793;23;20331;-70
2023/04/01 06:50:30;;;;;;;15.30;8.57;;;;;;;-147.16;86.44;75195.81;5092669;23;20211;-70
2023/04/01 06:53:14;;;;;;;15.07;8.10;;;;;;;-147.16;86.23;75181.63;5056615;23;20203;-68
2023/04/01 06:55:56;;;;;;;9.13;5.00;;;;;;;-147.16;84.67;75189.75;5026944;23;22697;-67
2023/04/01 06:58:59;;;;;;;6.37;4.20;;;;;;;-147.16;83.97;75199.84;5061083;23;20464;-69
2023/04/01 07:01:49;;;;;;;9.70;4.00;;;;;;;-147.16;83.52;75189.75;5077530;23;21591;-76
2023/04/01 07:04:22;;;;;;;10.20;4.20;;;;;;;-147.16;83.34;75183.66;5050059;23;21191;-67
2023/04/01 07:06:59;;;;;;;7.07;4.70;;;;;;;-147.16;82.69;75197.84;5075886;23;21205;-71
2023/04/01 07:09:31;;;;;;;8.57;5.10;;;;;;;-147.16;83.49;75205.94;5086741;23;20285;-67
2023/04/01 07:12:01;;;;;;;8.03;5.23;;;;;;;-147.16;84.11;75205.94;5071689;23;20206;-67
2023/04/01 07:14:35;;;;;;;18.23;9.20;;;;;;;-147.16;84.71;75201.88;5024596;23;20224;-67
2023/04/01 07:17:06;;;;;;;19.40;11.60;;;;;;;-147.16;84.96;75189.75;5034991;23;20259;-68
2023/04/01 07:19:46;;;;;;;25.80;14.90;;;;;;;-147.16;85.34;75191.75;5031863;23;20211;-71
2023/04/01 07:22:40;;;;;;;29.00;17.70;;;;;;;-147.16;85.26;75195.81;5069014;23;20206;-70
2023/04/01 07:25:16;;;;;;;29.90;17.97;;;;;;;-147.16;85.37;75193.78;5067445;23;20209;-69
2023/04/01 07:27:43;;;;;;;32.10;19.87;;;;;;;-147.16;85.40;75193.78;5058681;23;21164;-70
2023/04/01 07:30:16;;;;;;;27.63;18.27;;;;;;;-147.16;85.09;75195.81;5036848;23;20205;-67
2023/04/01 07:32:46;;;;;;;33.33;18.80;;;;;;;-147.16;85.42;75201.88;5030641;23;20204;-68
2023/04/01 07:35:27;;;;;;;35.57;20.87;;;;;;;-147.16;86.10;75203.91;5056196;23;20209;-68
2023/04/01 07:37:56;;;;;;;34.23;21.80;;;;;;;-147.16;86.55;75203.91;5047152;23;23545;-68
2023/04/01 07:40:32;;;;;;;36.47;21.90;;;;;;;-147.16;87.36;75209.97;5049064;23;20350;-66
2023/04/01 07:43:20;;;;;;;37.47;22.00;;;;;;;-147.16;87.66;75193.78;5072608;23;20211;-70
2023/04/01 07:46:10;;;;;;;36.07;21.70;;;;;;;-147.16;87.74;75171.53;5065087;23;20207;-68
2023/04/01 07:48:46;;;;;;;39.43;23.27;;;;;;;-147.16;86.57;75183.66;5077834;23;20240;-72
2023/04/01 07:51:24;;;;;;;36.53;21.87;;;;;;;-147.16;86.21;75193.78;5085784;23;20238;-66
2023/04/01 07:53:54;;;;;;;34.93;21.27;;;;;;;-147.16;85.71;75189.75;5025541;23;20280;-66
2023/04/01 07:56:41;;;;;;;29.63;19.17;;;;;;;-147.16;84.29;75181.63;5059829;23;20517;-71
2023/04/01 07:59:37;;;;;;;29.93;19.10;;;;;;;-147.16;83.90;75173.53;5054892;23;20262;-68
2023/04/01 08:02:25;;;;;;;32.97;18.57;;;;;;;-147.16;84.10;75173.53;5113829;23;20211;-66
2023/04/01 08:05:05;;;;;;;30.83;19.17;;;;;;;-147.16;83.40;75165.44;5057304;23;20235;-66
2023/04/01 16:08:23;;;;;;;3.77;2.40;;;;;;;10.07;74.11;98599.78;4757250;27;1657528;-65
2023/04/01 16:11:10;;;;;;;4.53;2.30;;;;;;;9.72;75.23;98614.91;4959890;28;20316;-63
2023/04/01 16:15:57;;;;;;;4.80;2.43;;;;;;;9.50;76.09;98610.25;4362112;27;23932;-67
2023/04/01 16:19:03;;;;;;;3.53;2.30;;;;;;;9.62;75.45;98617.91;4242232;28;20824;-66
2023/04/01 16:21:41;;;;;;;3.23;2.03;;;;;;;9.40;76.07;98625.91;4229839;28;21263;-63
2023/04/01 16:24:46;;;;;;;3.60;2.40;;;;;;;9.41;76.15;98630.25;4258912;28;20281;-68
2023/04/01 16:27:12;;;;;;;5.33;2.20;;;;;;;9.29;76.24;98631.72;4266215;28;20244;-66
2023/04/01 16:29:45;;;;;;;4.73;2.50;;;;;;;9.23;77.23;98630.59;4261633;28;20238;-68
2023/04/01 16:32:23;;;;;;;4.17;2.20;;;;;;;9.19;77.39;98632.00;4254312;28;20289;-65
2023/04/01 16:34:56;;;;;;;5.27;2.73;;;;;;;9.15;77.71;98642.31;4258145;28;21983;-67
2023/04/01 16:37:38;;;;;;;5.13;2.40;;;;;;;9.17;77.70;98643.00;4270711;28;21630;-69
2023/04/01 16:40:42;;;;;;;4.10;2.07;;;;;;;9.16;77.63;98646.72;4248960;28;20233;-66
2023/04/01 16:43:10;;;;;;;3.73;2.20;;;;;;;9.18;77.01;98650.03;4265867;28;20227;-66
2023/04/01 16:45:43;;;;;;;6.63;3.13;;;;;;;9.07;77.63;98658.59;4265010;28;21806;-68
2023/04/01 16:48:16;;;;;;;4.93;2.47;;;;;;;9.12;77.44;98663.44;4258517;28;20264;-64
2023/04/01 16:50:58;;;;;;;5.07;2.77;;;;;;;9.10;77.51;98669.00;4252701;28;20230;-64
2023/04/01 16:53:43;;;;;;;4.13;2.40;;;;;;;9.16;76.98;98672.84;4257412;28;20294;-65
2023/04/01 16:56:13;;;;;;;5.27;2.80;;;;;;;9.11;77.75;98684.19;4267149;28;20226;-65
2023/04/01 16:58:46;;;;;;;4.53;2.80;;;;;;;8.92;78.22;98682.00;4252456;28;20234;-64
2023/04/01 17:01:28;;;;;;;4.87;2.80;;;;;;;8.94;78.22;98685.34;4253179;28;20222;-63
2023/04/01 17:04:06;;;;;;;5.77;2.73;;;;;;;8.99;78.22;98685.66;4255415;28;20238;-65
2023/04/01 17:06:44;;;;;;;4.93;3.00;;;;;;;8.97;78.65;98693.06;4238887;28;20261;-66
2023/04/01 17:09:23;;;;;;;7.57;3.50;;;;;;;9.11;78.28;98704.97;4240696;28;20230;-63
2023/04/01 17:12:17;;;;;;;10.13;4.73;;;;;;;8.99;78.61;98705.38;4268429;28;20421;-64
2023/04/01 17:15:08;;;;;;;10.43;4.93;;;;;;;8.92;79.23;98709.81;4260215;28;20253;-64
2023/04/01 17:17:50;;;;;;;8.03;4.40;;;;;;;9.03;78.30;98713.94;4280119;28;20232;-67
2023/04/01 17:20:39;;;;;;;7.83;4.33;;;;;;;9.01;78.31;98716.84;4264861;28;20249;-64
2023/04/01 17:23:13;;;;;;;6.93;4.53;;;;;;;8.81;78.83;98721.03;4266810;28;20539;-62
2023/04/01 17:25:48;;;;;;;11.67;4.67;;;;;;;8.94;78.25;98721.25;4223113;28;20230;-65
2023/04/01 17:28:37;;;;;;;11.07;4.53;;;;;;;8.80;77.94;98733.66;4237482;28;20295;-64
2023/04/01 17:31:21;;;;;;;7.30;4.53;;;;;;;8.70;78.96;98738.47;4241861;28;21897;-62
2023/04/01 17:34:14;;;;;;;9.20;5.53;;;;;;;8.75;78.30;98733.34;4250451;28;20230;-66
2023/04/01 17:36:43;;;;;;;6.60;4.60;;;;;;;8.75;77.81;98744.16;4225493;28;20333;-65
2023/04/01 17:39:22;;;;;;;7.50;4.30;;;;;;;8.85;77.47;98752.00;4243453;28;20231;-61
2023/04/01 17:41:54;;;;;;;6.70;4.33;;;;;;;8.76;77.14;98756.63;4239955;28;20352;-63
2023/04/01 17:45:00;;;;;;;7.47;4.80;;;;;;;8.53;77.69;98753.91;4234006;28;24272;-63
2023/04/01 17:48:16;;;;;;;7.97;4.83;;;;;;;8.66;77.77;98767.66;4246883;28;20357;-66
2023/04/01 17:50:55;;;;;;;7.40;4.00;;;;;;;8.62;78.01;98774.41;4176782;28;20258;-68
2023/04/01 17:53:40;;;;;;;8.50;5.00;;;;;;;8.33;78.17;98767.75;4172392;28;20415;-67
2023/04/01 17:56:42;;;;;;;7.50;5.07;;;;;;;8.37;78.25;98782.56;4221635;28;20332;-68
2023/04/01 17:59:21;;;;;;;7.80;4.90;;;;;;;8.53;77.56;98783.56;4262580;28;20230;-68
2023/04/01 18:02:00;;;;;;;9.37;4.87;;;;;;;8.45;77.67;98791.66;4242211;28;20235;-67
2023/04/01 18:04:35;;;;;;;11.20;6.17;;;;;;;8.35;78.28;98792.69;4205192;28;21743;-64
2023/04/01 18:07:05;;;;;;;10.17;5.53;;;;;;;8.27;78.23;98789.19;4243037;28;22038;-67
2023/04/01 18:09:50;;;;;;;9.60;5.67;;;;;;;8.32;78.23;98805.69;4223683;28;20318;-64
2023/04/01 18:12:55;;;;;;;7.10;4.83;;;;;;;8.34;78.04;98809.88;4226700;28;20237;-66
2023/04/01 18:15:36;;;;;;;9.70;5.60;;;;;;;8.44;77.24;98816.94;4249025;28;20932;-66
2023/04/01 18:18:53;;;;;;;10.77;6.37;;;;;;;8.34;77.77;98814.44;4229467;28;25246;-62
2023/04/01 18:21:35;;;;;;;10.53;6.40;;;;;;;8.36;77.78;98817.78;4237561;28;20260;-63
2023/04/01 18:24:25;;;;;;;10.10;6.00;;;;;;;8.17;77.95;98819.00;4241714;28;23050;-66
2023/04/01 18:27:04;;;;;;;9.77;6.20;;;;;;;8.10;78.71;98832.34;4233996;28;24162;-68
2023/04/01 18:29:40;;;;;;;11.67;6.87;;;;;;;8.15;78.47;98831.84;4226419;28;22894;-64
2023/04/01 18:32:06;;;;;;;14.27;7.20;;;;;;;8.10;78.90;98837.75;4250711;28;20443;-63
2023/04/01 18:34:59;;;;;;;12.20;6.93;;;;;;;8.24;78.27;98837.03;4231550;28;20325;-67
2023/04/01 18:37:39;;;;;;;12.17;7.27;;;;;;;8.02;78.93;98848.53;4244435;28;20228;-63
2023/04/01 18:40:34;;;;;;;13.27;7.10;;;;;;;8.07;79.22;98854.22;4226287;28;23055;-68
2023/04/01 18:43:27;;;;;;;9.83;6.33;;;;;;;8.05;78.88;98854.41;4234917;28;20246;-66
2023/04/01 18:46:05;;;;;;;11.63;6.57;;;;;;;7.98;79.29;98853.41;4245882;28;21762;-68
2023/04/01 18:49:16;;;;;;;10.37;6.40;;;;;;;8.02;78.88;98860.13;4243410;28;21155;-67
2023/04/01 18:51:55;;;;;;;11.57;6.83;;;;;;;7.95;79.06;98859.13;4233902;28;20226;-65
2023/04/01 18:54:33;;;;;;;10.10;6.30;;;;;;;7.87;79.57;98865.38;4241530;28;21619;-63
2023/04/01 18:57:08;;;;;;;12.57;7.07;;;;;;;7.92;79.02;98867.56;4237294;28;21328;-66
2023/04/01 18:59:55;;;;;;;13.20;7.77;;;;;;;7.90;78.90;98873.09;4227399;28;20234;-68
2023/04/01 19:02:32;;;;;;;13.20;7.20;;;;;;;7.95;78.87;98871.78;4260464;28;21602;-67
2023/04/01 19:05:04;;;;;;;10.93;7.20;;;;;;;8.01;78.91;98871.09;4243141;28;20666;-64
2023/04/01 19:07:36;;;;;;;10.33;6.20;;;;;;;7.95;79.10;98878.00;4221152;28;20283;-65
2023/04/01 19:10:32;;;;;;;10.37;6.30;;;;;;;7.84;79.50;98876.47;4242620;28;20271;-65
2023/04/01 19:13:08;;;;;;;10.10;7.33;;;;;;;7.92;79.42;98878.34;4247675;28;20234;-66
2023/04/01 19:16:01;;;;;;;14.83;7.47;;;;;;;7.78;79.70;98886.06;4228658;28;20705;-67
2023/04/01 19:18:36;;;;;;;11.53;6.60;;;;;;;7.82;79.71;98889.25;4253614;28;21467;-64
2023/04/01 19:21:17;;;;;;;11.23;6.73;;;;;;;7.74;79.72;98897.38;4231287;28;20408;-65
2023/04/01 19:24:10;;;;;;;11.63;7.07;;;;;;;7.83;79.85;98906.28;4282319;28;20254;-67
2023/04/01 19:26:42;;;;;;;10.47;6.93;;;;;;;7.89;79.74;98902.91;4367051;28;20849;-68
2023/04/01 19:29:46;;;;;;;13.63;6.77;;;;;;;7.61;80.53;98914.00;4298488;28;20242;-65
2023/04/01 19:32:40;;;;;;;11.43;7.23;;;;;;;7.86;79.77;98914.88;4390768;28;20228;-68
2023/04/01 19:35:13;;;;;;;11.43;6.50;;;;;;;7.91;79.03;98917.06;4401945;28;20402;-68
2023/04/01 19:38:10;;;;;;;13.50;7.17;;;;;;;7.82;79.75;98923.47;4420298;28;20910;-70
2023/04/01 19:40:46;;;;;;;12.70;6.70;;;;;;;8.01;78.88;98914.22;4309810;28;20237;-69
2023/04/01 19:43:25;;;;;;;11.60;7.13;;;;;;;7.89;79.13;98928.00;4286774;28;20459;-65
2023/04/01 19:46:05;;;;;;;10.17;6.13;;;;;;;7.89;78.97;98933.38;4324066;28;22213;-66
2023/04/01 19:48:49;;;;;;;14.27;7.40;;;;;;;7.87;79.15;98938.13;4298340;28;22012;-66
2023/04/01 19:51:23;;;;;;;12.97;6.70;;;;;;;7.83;79.40;98938.63;4332749;28;21407;-66